sensor_id;sensor_type;location;lat;lon;timestamp;P1;durP1;ratioP1;P2;durP2;ratioP2
18776;SDS011;9517;51.174;4.160;2022-10-17T00:00:30;20.87;;;10.67;;
18776;SDS011;9517;51.174;4.160;2022-10-17T00:02:57;18.57;;;10.30;;
18776;SDS011;9517;51.174;4.160;2022-10-17T00:05:25;19.63;;;10.17;;
18776;SDS011;9517;51.174;4.160;2022-10-17T00:07:52;21.83;;;10.87;;
18776;SDS011;9517;51.174;4.160;2022-10-17T00:10:19;19.80;;;11.27;;
18776;SDS011;9517;51.174;4.160;2022-10-17T00:12:46;17.83;;;10.93;;
18776;SDS011;9517;51.174;4.160;2022-10-17T00:15:17;20.97;;;11.10;;
18776;SDS011;9517;51.174;4.160;2022-10-17T00:17:45;21.17;;;10.77;;
18776;SDS011;9517;51.174;4.160;2022-10-17T00:20:13;19.47;;;11.27;;
18776;SDS011;9517;51.174;4.160;2022-10-17T00:22:41;20.63;;;10.30;;
18776;SDS011;9517;51.174;4.160;2022-10-17T00:25:08;22.20;;;10.80;;
18776;SDS011;9517;51.174;4.160;2022-10-17T00:27:35;20.03;;;11.07;;
18776;SDS011;9517;51.174;4.160;2022-10-17T00:30:04;19.90;;;11.07;;
18776;SDS011;9517;51.174;4.160;2022-10-17T00:32:34;18.03;;;10.37;;
18776;SDS011;9517;51.174;4.160;2022-10-17T00:35:01;18.37;;;10.77;;
18776;SDS011;9517;51.174;4.160;2022-10-17T00:37:29;18.93;;;10.60;;
18776;SDS011;9517;51.174;4.160;2022-10-17T00:39:56;21.60;;;10.93;;
18776;SDS011;9517;51.174;4.160;2022-10-17T00:42:23;22.37;;;11.13;;
18776;SDS011;9517;51.174;4.160;2022-10-17T00:44:57;19.43;;;10.67;;
18776;SDS011;9517;51.174;4.160;2022-10-17T00:47:26;18.93;;;11.17;;
18776;SDS011;9517;51.174;4.160;2022-10-17T00:49:55;17.53;;;10.80;;
18776;SDS011;9517;51.174;4.160;2022-10-17T00:52:24;17.77;;;10.97;;
18776;SDS011;9517;51.174;4.160;2022-10-17T00:54:54;18.50;;;11.03;;
18776;SDS011;9517;51.174;4.160;2022-10-17T00:57:24;20.90;;;11.80;;
18776;SDS011;9517;51.174;4.160;2022-10-17T00:59:55;20.60;;;11.33;;
18776;SDS011;9517;51.174;4.160;2022-10-17T01:02:23;18.87;;;10.93;;
18776;SDS011;9517;51.174;4.160;2022-10-17T01:04:50;18.60;;;10.80;;
18776;SDS011;9517;51.174;4.160;2022-10-17T01:07:21;26.53;;;12.03;;
18776;SDS011;9517;51.174;4.160;2022-10-17T01:09:48;18.87;;;11.57;;
18776;SDS011;9517;51.174;4.160;2022-10-17T01:12:17;23.40;;;10.90;;
18776;SDS011;9517;51.174;4.160;2022-10-17T01:14:54;21.23;;;11.33;;
18776;SDS011;9517;51.174;4.160;2022-10-17T01:17:31;17.77;;;11.00;;
18776;SDS011;9517;51.174;4.160;2022-10-17T01:23:07;22.70;;;11.90;;
18776;SDS011;9517;51.174;4.160;2022-10-17T01:25:51;21.90;;;11.67;;
18776;SDS011;9517;51.174;4.160;2022-10-17T01:28:31;21.77;;;11.77;;
18776;SDS011;9517;51.174;4.160;2022-10-17T01:31:22;22.57;;;11.93;;
18776;SDS011;9517;51.174;4.160;2022-10-17T01:33:55;22.77;;;11.80;;
18776;SDS011;9517;51.174;4.160;2022-10-17T01:36:38;19.40;;;10.93;;
18776;SDS011;9517;51.174;4.160;2022-10-17T01:39:15;24.90;;;12.07;;
18776;SDS011;9517;51.174;4.160;2022-10-17T01:41:50;22.03;;;12.00;;
18776;SDS011;9517;51.174;4.160;2022-10-17T01:44:24;29.33;;;12.27;;
18776;SDS011;9517;51.174;4.160;2022-10-17T01:46:59;23.60;;;12.20;;
18776;SDS011;9517;51.174;4.160;2022-10-17T01:49:30;23.07;;;13.07;;
18776;SDS011;9517;51.174;4.160;2022-10-17T01:52:01;22.50;;;12.03;;
18776;SDS011;9517;51.174;4.160;2022-10-17T01:54:35;22.80;;;12.70;;
18776;SDS011;9517;51.174;4.160;2022-10-17T01:57:04;25.53;;;13.03;;
18776;SDS011;9517;51.174;4.160;2022-10-17T01:59:39;25.87;;;12.83;;
18776;SDS011;9517;51.174;4.160;2022-10-17T02:02:10;24.40;;;12.60;;
18776;SDS011;9517;51.174;4.160;2022-10-17T02:04:40;25.87;;;13.60;;
18776;SDS011;9517;51.174;4.160;2022-10-17T02:07:09;21.50;;;11.67;;
18776;SDS011;9517;51.174;4.160;2022-10-17T02:09:38;21.33;;;13.10;;
18776;SDS011;9517;51.174;4.160;2022-10-17T02:12:16;21.77;;;12.83;;
18776;SDS011;9517;51.174;4.160;2022-10-17T02:14:59;24.43;;;13.20;;
18776;SDS011;9517;51.174;4.160;2022-10-17T02:17:43;26.27;;;12.87;;
18776;SDS011;9517;51.174;4.160;2022-10-17T02:20:16;23.10;;;13.37;;
18776;SDS011;9517;51.174;4.160;2022-10-17T02:22:50;23.77;;;13.20;;
18776;SDS011;9517;51.174;4.160;2022-10-17T02:25:23;27.63;;;13.60;;
18776;SDS011;9517;51.174;4.160;2022-10-17T02:27:59;26.07;;;13.27;;
18776;SDS011;9517;51.174;4.160;2022-10-17T02:30:34;22.33;;;13.37;;
18776;SDS011;9517;51.174;4.160;2022-10-17T02:33:08;29.93;;;13.83;;
18776;SDS011;9517;51.174;4.160;2022-10-17T02:35:39;29.63;;;13.47;;
18776;SDS011;9517;51.174;4.160;2022-10-17T02:38:09;26.60;;;13.53;;
18776;SDS011;9517;51.174;4.160;2022-10-17T02:40:37;22.93;;;13.07;;
18776;SDS011;9517;51.174;4.160;2022-10-17T02:43:06;25.90;;;14.13;;
18776;SDS011;9517;51.174;4.160;2022-10-17T02:45:33;27.50;;;13.17;;
18776;SDS011;9517;51.174;4.160;2022-10-17T02:48:03;24.90;;;13.20;;
18776;SDS011;9517;51.174;4.160;2022-10-17T02:50:40;22.50;;;12.77;;
18776;SDS011;9517;51.174;4.160;2022-10-17T02:53:15;23.90;;;13.00;;
18776;SDS011;9517;51.174;4.160;2022-10-17T02:55:52;23.57;;;13.23;;
18776;SDS011;9517;51.174;4.160;2022-10-17T02:58:24;25.90;;;12.97;;
18776;SDS011;9517;51.174;4.160;2022-10-17T03:00:56;25.00;;;12.53;;
18776;SDS011;9517;51.174;4.160;2022-10-17T03:03:25;21.67;;;11.83;;
18776;SDS011;9517;51.174;4.160;2022-10-17T03:05:54;20.03;;;11.80;;
18776;SDS011;9517;51.174;4.160;2022-10-17T03:08:22;25.10;;;12.73;;
18776;SDS011;9517;51.174;4.160;2022-10-17T03:10:49;24.43;;;12.70;;
18776;SDS011;9517;51.174;4.160;2022-10-17T03:13:16;21.63;;;11.53;;
18776;SDS011;9517;51.174;4.160;2022-10-17T03:15:48;19.77;;;11.80;;
18776;SDS011;9517;51.174;4.160;2022-10-17T03:18:15;29.70;;;13.33;;
18776;SDS011;9517;51.174;4.160;2022-10-17T03:20:42;19.57;;;11.03;;
18776;SDS011;9517;51.174;4.160;2022-10-17T03:23:10;24.60;;;11.23;;
18776;SDS011;9517;51.174;4.160;2022-10-17T03:25:38;18.73;;;11.43;;
18776;SDS011;9517;51.174;4.160;2022-10-17T03:28:05;23.67;;;10.37;;
18776;SDS011;9517;51.174;4.160;2022-10-17T03:30:32;17.63;;;10.20;;
18776;SDS011;9517;51.174;4.160;2022-10-17T03:32:59;22.93;;;10.57;;
18776;SDS011;9517;51.174;4.160;2022-10-17T03:35:27;17.70;;;10.17;;
18776;SDS011;9517;51.174;4.160;2022-10-17T03:37:53;18.83;;;9.70;;
18776;SDS011;9517;51.174;4.160;2022-10-17T03:40:22;15.83;;;9.47;;
18776;SDS011;9517;51.174;4.160;2022-10-17T03:42:49;16.37;;;8.67;;
18776;SDS011;9517;51.174;4.160;2022-10-17T03:45:16;18.37;;;8.93;;
18776;SDS011;9517;51.174;4.160;2022-10-17T03:47:43;15.23;;;8.07;;
18776;SDS011;9517;51.174;4.160;2022-10-17T03:50:10;16.87;;;8.77;;
18776;SDS011;9517;51.174;4.160;2022-10-17T03:52:37;15.90;;;8.70;;
18776;SDS011;9517;51.174;4.160;2022-10-17T03:55:04;17.87;;;8.43;;
18776;SDS011;9517;51.174;4.160;2022-10-17T03:57:34;16.13;;;8.43;;
18776;SDS011;9517;51.174;4.160;2022-10-17T04:00:02;18.47;;;8.43;;
18776;SDS011;9517;51.174;4.160;2022-10-17T04:02:30;15.33;;;7.77;;
18776;SDS011;9517;51.174;4.160;2022-10-17T04:04:59;15.53;;;8.00;;
18776;SDS011;9517;51.174;4.160;2022-10-17T04:07:26;16.93;;;7.97;;
18776;SDS011;9517;51.174;4.160;2022-10-17T04:09:54;15.60;;;7.83;;
18776;SDS011;9517;51.174;4.160;2022-10-17T04:12:21;18.97;;;7.90;;
18776;SDS011;9517;51.174;4.160;2022-10-17T04:14:50;13.77;;;7.73;;
18776;SDS011;9517;51.174;4.160;2022-10-17T04:17:17;16.43;;;7.93;;
18776;SDS011;9517;51.174;4.160;2022-10-17T04:19:44;19.07;;;7.63;;
18776;SDS011;9517;51.174;4.160;2022-10-17T04:22:11;19.03;;;8.03;;
18776;SDS011;9517;51.174;4.160;2022-10-17T04:24:38;16.63;;;8.00;;
18776;SDS011;9517;51.174;4.160;2022-10-17T04:27:05;14.67;;;7.23;;
18776;SDS011;9517;51.174;4.160;2022-10-17T04:29:32;13.13;;;7.30;;
18776;SDS011;9517;51.174;4.160;2022-10-17T04:32:00;14.10;;;7.43;;
18776;SDS011;9517;51.174;4.160;2022-10-17T04:34:28;14.80;;;7.20;;
18776;SDS011;9517;51.174;4.160;2022-10-17T04:36:55;14.20;;;7.63;;
18776;SDS011;9517;51.174;4.160;2022-10-17T04:39:22;14.80;;;7.50;;
18776;SDS011;9517;51.174;4.160;2022-10-17T04:41:49;14.60;;;7.53;;
18776;SDS011;9517;51.174;4.160;2022-10-17T04:44:16;19.33;;;7.73;;
18776;SDS011;9517;51.174;4.160;2022-10-17T04:46:44;15.57;;;7.53;;
18776;SDS011;9517;51.174;4.160;2022-10-17T04:49:13;14.33;;;7.20;;
18776;SDS011;9517;51.174;4.160;2022-10-17T04:51:40;14.30;;;7.50;;
18776;SDS011;9517;51.174;4.160;2022-10-17T04:54:07;15.70;;;7.43;;
18776;SDS011;9517;51.174;4.160;2022-10-17T04:56:34;12.30;;;7.30;;
18776;SDS011;9517;51.174;4.160;2022-10-17T04:59:01;19.20;;;8.60;;
18776;SDS011;9517;51.174;4.160;2022-10-17T05:01:28;17.97;;;7.63;;
18776;SDS011;9517;51.174;4.160;2022-10-17T05:03:55;17.17;;;7.57;;
18776;SDS011;9517;51.174;4.160;2022-10-17T05:06:24;19.33;;;7.77;;
18776;SDS011;9517;51.174;4.160;2022-10-17T05:08:52;16.40;;;7.03;;
18776;SDS011;9517;51.174;4.160;2022-10-17T05:11:20;15.47;;;8.53;;
18776;SDS011;9517;51.174;4.160;2022-10-17T05:13:48;17.67;;;8.20;;
18776;SDS011;9517;51.174;4.160;2022-10-17T05:16:17;16.63;;;7.70;;
18776;SDS011;9517;51.174;4.160;2022-10-17T05:18:46;19.40;;;8.00;;
18776;SDS011;9517;51.174;4.160;2022-10-17T05:21:14;17.90;;;8.90;;
18776;SDS011;9517;51.174;4.160;2022-10-17T05:23:42;14.13;;;7.20;;
18776;SDS011;9517;51.174;4.160;2022-10-17T05:26:10;16.43;;;7.33;;
18776;SDS011;9517;51.174;4.160;2022-10-17T05:28:38;13.73;;;6.87;;
18776;SDS011;9517;51.174;4.160;2022-10-17T05:31:05;13.70;;;7.27;;
18776;SDS011;9517;51.174;4.160;2022-10-17T05:33:33;15.23;;;7.17;;
18776;SDS011;9517;51.174;4.160;2022-10-17T05:36:01;15.50;;;7.13;;
18776;SDS011;9517;51.174;4.160;2022-10-17T05:38:29;14.77;;;6.83;;
18776;SDS011;9517;51.174;4.160;2022-10-17T05:40:57;16.33;;;6.90;;
18776;SDS011;9517;51.174;4.160;2022-10-17T05:43:25;15.07;;;7.17;;
18776;SDS011;9517;51.174;4.160;2022-10-17T05:45:53;14.73;;;7.07;;
18776;SDS011;9517;51.174;4.160;2022-10-17T05:48:20;14.83;;;7.07;;
18776;SDS011;9517;51.174;4.160;2022-10-17T05:50:55;16.40;;;6.57;;
18776;SDS011;9517;51.174;4.160;2022-10-17T05:53:23;16.27;;;7.20;;
18776;SDS011;9517;51.174;4.160;2022-10-17T05:55:54;15.50;;;6.77;;
18776;SDS011;9517;51.174;4.160;2022-10-17T05:58:23;13.93;;;6.87;;
18776;SDS011;9517;51.174;4.160;2022-10-17T06:00:50;20.73;;;7.20;;
18776;SDS011;9517;51.174;4.160;2022-10-17T06:03:25;19.43;;;7.03;;
18776;SDS011;9517;51.174;4.160;2022-10-17T06:05:52;19.23;;;7.10;;
18776;SDS011;9517;51.174;4.160;2022-10-17T06:08:19;13.00;;;6.33;;
18776;SDS011;9517;51.174;4.160;2022-10-17T06:10:47;16.53;;;6.57;;
18776;SDS011;9517;51.174;4.160;2022-10-17T06:13:15;17.23;;;7.57;;
18776;SDS011;9517;51.174;4.160;2022-10-17T06:15:44;13.80;;;7.00;;
18776;SDS011;9517;51.174;4.160;2022-10-17T06:18:11;19.90;;;7.50;;
18776;SDS011;9517;51.174;4.160;2022-10-17T06:20:38;19.70;;;8.10;;
18776;SDS011;9517;51.174;4.160;2022-10-17T06:23:05;13.17;;;7.17;;
18776;SDS011;9517;51.174;4.160;2022-10-17T06:25:32;16.47;;;7.50;;
18776;SDS011;9517;51.174;4.160;2022-10-17T06:28:00;15.90;;;7.90;;
18776;SDS011;9517;51.174;4.160;2022-10-17T06:30:27;15.17;;;7.87;;
18776;SDS011;9517;51.174;4.160;2022-10-17T06:32:56;16.77;;;8.03;;
18776;SDS011;9517;51.174;4.160;2022-10-17T06:35:23;15.50;;;7.90;;
18776;SDS011;9517;51.174;4.160;2022-10-17T06:37:50;19.27;;;8.30;;
18776;SDS011;9517;51.174;4.160;2022-10-17T06:40:17;15.60;;;8.50;;
18776;SDS011;9517;51.174;4.160;2022-10-17T06:42:44;19.00;;;8.37;;
18776;SDS011;9517;51.174;4.160;2022-10-17T06:45:12;14.73;;;8.57;;
18776;SDS011;9517;51.174;4.160;2022-10-17T06:47:39;17.33;;;9.30;;
18776;SDS011;9517;51.174;4.160;2022-10-17T06:50:09;26.33;;;9.00;;
18776;SDS011;9517;51.174;4.160;2022-10-17T06:52:36;16.00;;;8.30;;
18776;SDS011;9517;51.174;4.160;2022-10-17T06:55:03;19.63;;;9.13;;
18776;SDS011;9517;51.174;4.160;2022-10-17T06:57:33;21.30;;;10.00;;
18776;SDS011;9517;51.174;4.160;2022-10-17T07:00:03;19.30;;;9.73;;
18776;SDS011;9517;51.174;4.160;2022-10-17T07:02:31;21.30;;;10.00;;
18776;SDS011;9517;51.174;4.160;2022-10-17T07:04:58;17.43;;;9.67;;
18776;SDS011;9517;51.174;4.160;2022-10-17T07:07:30;19.83;;;9.60;;
18776;SDS011;9517;51.174;4.160;2022-10-17T07:09:57;18.87;;;9.73;;
18776;SDS011;9517;51.174;4.160;2022-10-17T07:12:25;19.43;;;9.43;;
18776;SDS011;9517;51.174;4.160;2022-10-17T07:14:52;16.80;;;9.87;;
18776;SDS011;9517;51.174;4.160;2022-10-17T07:17:19;21.77;;;9.97;;
18776;SDS011;9517;51.174;4.160;2022-10-17T07:19:46;19.07;;;9.77;;
18776;SDS011;9517;51.174;4.160;2022-10-17T07:22:13;19.63;;;11.50;;
18776;SDS011;9517;51.174;4.160;2022-10-17T07:24:42;16.63;;;9.30;;
18776;SDS011;9517;51.174;4.160;2022-10-17T07:27:09;18.63;;;9.60;;
18776;SDS011;9517;51.174;4.160;2022-10-17T07:29:36;21.57;;;10.23;;
18776;SDS011;9517;51.174;4.160;2022-10-17T07:32:03;24.30;;;10.07;;
18776;SDS011;9517;51.174;4.160;2022-10-17T07:34:32;19.00;;;9.50;;
18776;SDS011;9517;51.174;4.160;2022-10-17T07:36:59;19.63;;;10.13;;
18776;SDS011;9517;51.174;4.160;2022-10-17T07:39:27;19.83;;;10.00;;
18776;SDS011;9517;51.174;4.160;2022-10-17T07:41:55;19.40;;;10.87;;
18776;SDS011;9517;51.174;4.160;2022-10-17T07:44:23;19.93;;;10.77;;
18776;SDS011;9517;51.174;4.160;2022-10-17T07:46:50;18.43;;;9.93;;
18776;SDS011;9517;51.174;4.160;2022-10-17T07:49:17;19.37;;;10.20;;
18776;SDS011;9517;51.174;4.160;2022-10-17T07:51:44;19.83;;;10.43;;
18776;SDS011;9517;51.174;4.160;2022-10-17T07:54:13;20.13;;;10.07;;
18776;SDS011;9517;51.174;4.160;2022-10-17T07:56:40;25.93;;;10.30;;
18776;SDS011;9517;51.174;4.160;2022-10-17T07:59:09;21.23;;;9.97;;
18776;SDS011;9517;51.174;4.160;2022-10-17T08:01:36;25.27;;;10.50;;
18776;SDS011;9517;51.174;4.160;2022-10-17T08:04:03;25.63;;;10.70;;
18776;SDS011;9517;51.174;4.160;2022-10-17T08:06:30;24.03;;;10.27;;
18776;SDS011;9517;51.174;4.160;2022-10-17T08:08:57;23.43;;;10.07;;
18776;SDS011;9517;51.174;4.160;2022-10-17T08:11:25;18.50;;;9.17;;
18776;SDS011;9517;51.174;4.160;2022-10-17T08:13:52;19.10;;;9.47;;
18776;SDS011;9517;51.174;4.160;2022-10-17T08:16:21;21.97;;;10.27;;
18776;SDS011;9517;51.174;4.160;2022-10-17T08:18:47;19.70;;;9.50;;
18776;SDS011;9517;51.174;4.160;2022-10-17T08:21:14;19.57;;;9.53;;
18776;SDS011;9517;51.174;4.160;2022-10-17T08:23:41;20.17;;;9.40;;
18776;SDS011;9517;51.174;4.160;2022-10-17T08:26:09;19.73;;;10.73;;
18776;SDS011;9517;51.174;4.160;2022-10-17T08:28:38;19.50;;;9.90;;
18776;SDS011;9517;51.174;4.160;2022-10-17T08:31:06;19.50;;;10.13;;
18776;SDS011;9517;51.174;4.160;2022-10-17T08:33:37;18.37;;;10.40;;
18776;SDS011;9517;51.174;4.160;2022-10-17T08:36:05;18.43;;;9.03;;
18776;SDS011;9517;51.174;4.160;2022-10-17T08:38:33;20.40;;;9.53;;
18776;SDS011;9517;51.174;4.160;2022-10-17T08:41:01;20.17;;;9.27;;
18776;SDS011;9517;51.174;4.160;2022-10-17T08:43:41;19.10;;;9.27;;
18776;SDS011;9517;51.174;4.160;2022-10-17T08:46:16;17.00;;;9.03;;
18776;SDS011;9517;51.174;4.160;2022-10-17T08:48:46;22.87;;;8.77;;
18776;SDS011;9517;51.174;4.160;2022-10-17T08:51:19;21.43;;;8.40;;
18776;SDS011;9517;51.174;4.160;2022-10-17T08:53:48;15.87;;;8.17;;
18776;SDS011;9517;51.174;4.160;2022-10-17T08:56:20;17.80;;;8.30;;
18776;SDS011;9517;51.174;4.160;2022-10-17T08:58:49;16.87;;;8.53;;
18776;SDS011;9517;51.174;4.160;2022-10-17T09:01:23;19.07;;;8.63;;
18776;SDS011;9517;51.174;4.160;2022-10-17T09:04:03;20.77;;;9.03;;
18776;SDS011;9517;51.174;4.160;2022-10-17T09:06:45;24.50;;;9.17;;
18776;SDS011;9517;51.174;4.160;2022-10-17T09:09:21;28.07;;;9.53;;
18776;SDS011;9517;51.174;4.160;2022-10-17T09:12:01;36.53;;;9.33;;
18776;SDS011;9517;51.174;4.160;2022-10-17T09:14:59;26.23;;;8.73;;
18776;SDS011;9517;51.174;4.160;2022-10-17T09:17:40;17.17;;;7.50;;
18776;SDS011;9517;51.174;4.160;2022-10-17T09:20:16;16.00;;;6.83;;
18776;SDS011;9517;51.174;4.160;2022-10-17T09:22:48;18.47;;;7.57;;
18776;SDS011;9517;51.174;4.160;2022-10-17T09:25:20;17.93;;;7.50;;
18776;SDS011;9517;51.174;4.160;2022-10-17T09:27:49;17.37;;;7.43;;
18776;SDS011;9517;51.174;4.160;2022-10-17T09:30:24;15.43;;;6.87;;
18776;SDS011;9517;51.174;4.160;2022-10-17T09:32:59;16.00;;;7.20;;
18776;SDS011;9517;51.174;4.160;2022-10-17T09:35:28;15.53;;;7.00;;
18776;SDS011;9517;51.174;4.160;2022-10-17T09:37:55;17.33;;;7.40;;
18776;SDS011;9517;51.174;4.160;2022-10-17T09:40:25;16.80;;;8.50;;
18776;SDS011;9517;51.174;4.160;2022-10-17T09:42:55;17.93;;;7.57;;
18776;SDS011;9517;51.174;4.160;2022-10-17T09:45:23;18.03;;;7.67;;
18776;SDS011;9517;51.174;4.160;2022-10-17T09:47:57;16.23;;;7.90;;
18776;SDS011;9517;51.174;4.160;2022-10-17T09:50:33;16.83;;;7.77;;
18776;SDS011;9517;51.174;4.160;2022-10-17T09:53:01;15.50;;;7.40;;
18776;SDS011;9517;51.174;4.160;2022-10-17T09:55:36;16.57;;;8.23;;
18776;SDS011;9517;51.174;4.160;2022-10-17T09:58:05;14.97;;;7.83;;
18776;SDS011;9517;51.174;4.160;2022-10-17T10:00:34;19.37;;;7.50;;
18776;SDS011;9517;51.174;4.160;2022-10-17T10:03:10;17.10;;;7.27;;
18776;SDS011;9517;51.174;4.160;2022-10-17T10:05:57;16.50;;;7.30;;
18776;SDS011;9517;51.174;4.160;2022-10-17T10:08:27;16.53;;;8.00;;
18776;SDS011;9517;51.174;4.160;2022-10-17T10:10:57;16.07;;;7.60;;
18776;SDS011;9517;51.174;4.160;2022-10-17T10:13:27;15.60;;;8.23;;
18776;SDS011;9517;51.174;4.160;2022-10-17T10:15:54;15.87;;;7.27;;
18776;SDS011;9517;51.174;4.160;2022-10-17T10:18:40;15.70;;;7.37;;
18776;SDS011;9517;51.174;4.160;2022-10-17T10:21:10;14.73;;;7.87;;
18776;SDS011;9517;51.174;4.160;2022-10-17T10:23:39;15.73;;;7.30;;
18776;SDS011;9517;51.174;4.160;2022-10-17T10:28:57;18.70;;;8.47;;
18776;SDS011;9517;51.174;4.160;2022-10-17T10:31:28;16.03;;;7.60;;
18776;SDS011;9517;51.174;4.160;2022-10-17T10:34:01;22.27;;;7.77;;
18776;SDS011;9517;51.174;4.160;2022-10-17T10:36:44;12.43;;;7.20;;
18776;SDS011;9517;51.174;4.160;2022-10-17T10:39:26;13.50;;;7.70;;
18776;SDS011;9517;51.174;4.160;2022-10-17T10:42:03;13.57;;;7.53;;
18776;SDS011;9517;51.174;4.160;2022-10-17T10:44:33;13.67;;;7.20;;
18776;SDS011;9517;51.174;4.160;2022-10-17T10:47:06;14.17;;;7.10;;
18776;SDS011;9517;51.174;4.160;2022-10-17T10:49:49;15.03;;;7.03;;
18776;SDS011;9517;51.174;4.160;2022-10-17T10:52:23;13.23;;;6.80;;
18776;SDS011;9517;51.174;4.160;2022-10-17T10:57:45;14.20;;;6.23;;
18776;SDS011;9517;51.174;4.160;2022-10-17T11:00:14;11.50;;;6.57;;
18776;SDS011;9517;51.174;4.160;2022-10-17T11:02:47;13.67;;;5.63;;
18776;SDS011;9517;51.174;4.160;2022-10-17T11:05:20;11.97;;;4.90;;
18776;SDS011;9517;51.174;4.160;2022-10-17T11:07:56;12.57;;;5.50;;
18776;SDS011;9517;51.174;4.160;2022-10-17T11:10:30;10.93;;;5.10;;
18776;SDS011;9517;51.174;4.160;2022-10-17T11:13:03;12.37;;;5.53;;
18776;SDS011;9517;51.174;4.160;2022-10-17T11:15:39;12.73;;;4.87;;
18776;SDS011;9517;51.174;4.160;2022-10-17T11:18:12;10.73;;;4.60;;
18776;SDS011;9517;51.174;4.160;2022-10-17T11:20:49;11.33;;;4.67;;
18776;SDS011;9517;51.174;4.160;2022-10-17T11:23:22;11.97;;;4.50;;
18776;SDS011;9517;51.174;4.160;2022-10-17T11:26:04;12.07;;;4.97;;
18776;SDS011;9517;51.174;4.160;2022-10-17T11:28:33;9.90;;;4.13;;
18776;SDS011;9517;51.174;4.160;2022-10-17T11:31:01;10.97;;;4.70;;
18776;SDS011;9517;51.174;4.160;2022-10-17T11:33:44;15.37;;;5.23;;
18776;SDS011;9517;51.174;4.160;2022-10-17T11:36:14;11.03;;;4.87;;
18776;SDS011;9517;51.174;4.160;2022-10-17T11:38:46;12.50;;;4.67;;
18776;SDS011;9517;51.174;4.160;2022-10-17T11:41:18;10.77;;;4.37;;
18776;SDS011;9517;51.174;4.160;2022-10-17T11:43:51;11.27;;;4.63;;
18776;SDS011;9517;51.174;4.160;2022-10-17T11:46:20;11.47;;;4.73;;
18776;SDS011;9517;51.174;4.160;2022-10-17T11:48:57;12.87;;;5.83;;
18776;SDS011;9517;51.174;4.160;2022-10-17T11:51:30;11.17;;;5.13;;
18776;SDS011;9517;51.174;4.160;2022-10-17T11:54:05;14.53;;;6.57;;
18776;SDS011;9517;51.174;4.160;2022-10-17T11:56:39;11.23;;;5.80;;
18776;SDS011;9517;51.174;4.160;2022-10-17T12:02:18;12.50;;;6.03;;
18776;SDS011;9517;51.174;4.160;2022-10-17T12:05:11;12.20;;;6.10;;
18776;SDS011;9517;51.174;4.160;2022-10-17T12:08:02;13.03;;;5.53;;
18776;SDS011;9517;51.174;4.160;2022-10-17T12:10:54;9.73;;;4.73;;
18776;SDS011;9517;51.174;4.160;2022-10-17T12:13:45;14.63;;;6.63;;
18776;SDS011;9517;51.174;4.160;2022-10-17T12:19:22;12.90;;;5.80;;
18776;SDS011;9517;51.174;4.160;2022-10-17T12:21:57;13.20;;;6.00;;
18776;SDS011;9517;51.174;4.160;2022-10-17T12:24:29;15.30;;;6.27;;
18776;SDS011;9517;51.174;4.160;2022-10-17T12:32:55;14.27;;;6.47;;
18776;SDS011;9517;51.174;4.160;2022-10-17T12:35:26;13.77;;;6.53;;
18776;SDS011;9517;51.174;4.160;2022-10-17T12:38:14;13.67;;;5.50;;
18776;SDS011;9517;51.174;4.160;2022-10-17T12:40:52;13.23;;;6.03;;
18776;SDS011;9517;51.174;4.160;2022-10-17T12:43:35;11.83;;;6.07;;
18776;SDS011;9517;51.174;4.160;2022-10-17T12:49:20;13.33;;;6.00;;
18776;SDS011;9517;51.174;4.160;2022-10-17T12:52:14;13.10;;;6.03;;
18776;SDS011;9517;51.174;4.160;2022-10-17T12:54:59;15.80;;;6.27;;
18776;SDS011;9517;51.174;4.160;2022-10-17T12:57:33;14.10;;;6.30;;
18776;SDS011;9517;51.174;4.160;2022-10-17T13:00:11;13.83;;;6.10;;
18776;SDS011;9517;51.174;4.160;2022-10-17T13:02:42;16.27;;;6.57;;
18776;SDS011;9517;51.174;4.160;2022-10-17T13:05:10;15.03;;;6.53;;
18776;SDS011;9517;51.174;4.160;2022-10-17T13:07:43;13.10;;;6.43;;
18776;SDS011;9517;51.174;4.160;2022-10-17T13:10:20;14.37;;;5.77;;
18776;SDS011;9517;51.174;4.160;2022-10-17T13:12:48;14.20;;;5.90;;
18776;SDS011;9517;51.174;4.160;2022-10-17T13:15:20;15.50;;;6.17;;
18776;SDS011;9517;51.174;4.160;2022-10-17T13:17:58;13.50;;;5.90;;
18776;SDS011;9517;51.174;4.160;2022-10-17T13:20:26;12.50;;;5.67;;
18776;SDS011;9517;51.174;4.160;2022-10-17T13:22:56;11.60;;;5.77;;
18776;SDS011;9517;51.174;4.160;2022-10-17T13:25:23;11.90;;;4.77;;
18776;SDS011;9517;51.174;4.160;2022-10-17T13:28:01;11.13;;;5.70;;
18776;SDS011;9517;51.174;4.160;2022-10-17T13:30:32;15.80;;;5.70;;
18776;SDS011;9517;51.174;4.160;2022-10-17T13:33:00;13.17;;;5.27;;
18776;SDS011;9517;51.174;4.160;2022-10-17T13:35:29;15.27;;;5.67;;
18776;SDS011;9517;51.174;4.160;2022-10-17T13:37:59;15.83;;;5.40;;
18776;SDS011;9517;51.174;4.160;2022-10-17T13:40:31;14.03;;;5.30;;
18776;SDS011;9517;51.174;4.160;2022-10-17T13:43:09;13.33;;;5.07;;
18776;SDS011;9517;51.174;4.160;2022-10-17T13:45:44;12.13;;;5.20;;
18776;SDS011;9517;51.174;4.160;2022-10-17T13:48:16;12.43;;;5.00;;
18776;SDS011;9517;51.174;4.160;2022-10-17T13:50:46;11.97;;;4.77;;
18776;SDS011;9517;51.174;4.160;2022-10-17T13:53:17;11.40;;;4.07;;
18776;SDS011;9517;51.174;4.160;2022-10-17T13:58:30;11.17;;;4.40;;
18776;SDS011;9517;51.174;4.160;2022-10-17T14:01:06;17.53;;;4.67;;
18776;SDS011;9517;51.174;4.160;2022-10-17T14:03:33;10.77;;;4.27;;
18776;SDS011;9517;51.174;4.160;2022-10-17T14:06:05;12.63;;;4.37;;
18776;SDS011;9517;51.174;4.160;2022-10-17T14:08:38;11.23;;;4.83;;
18776;SDS011;9517;51.174;4.160;2022-10-17T14:11:12;13.23;;;4.60;;
18776;SDS011;9517;51.174;4.160;2022-10-17T14:13:42;16.13;;;4.77;;
18776;SDS011;9517;51.174;4.160;2022-10-17T14:16:15;19.93;;;5.20;;
18776;SDS011;9517;51.174;4.160;2022-10-17T14:18:44;13.87;;;4.60;;
18776;SDS011;9517;51.174;4.160;2022-10-17T14:21:17;13.30;;;5.13;;
18776;SDS011;9517;51.174;4.160;2022-10-17T14:23:46;13.70;;;4.80;;
18776;SDS011;9517;51.174;4.160;2022-10-17T14:26:14;11.17;;;4.50;;
18776;SDS011;9517;51.174;4.160;2022-10-17T14:28:44;14.13;;;5.00;;
18776;SDS011;9517;51.174;4.160;2022-10-17T14:31:21;12.60;;;4.87;;
18776;SDS011;9517;51.174;4.160;2022-10-17T14:33:55;13.30;;;5.17;;
18776;SDS011;9517;51.174;4.160;2022-10-17T14:36:29;16.43;;;5.53;;
18776;SDS011;9517;51.174;4.160;2022-10-17T14:38:59;14.27;;;5.37;;
18776;SDS011;9517;51.174;4.160;2022-10-17T14:41:28;12.50;;;5.10;;
18776;SDS011;9517;51.174;4.160;2022-10-17T14:43:58;15.83;;;4.97;;
18776;SDS011;9517;51.174;4.160;2022-10-17T14:46:29;16.87;;;5.60;;
18776;SDS011;9517;51.174;4.160;2022-10-17T14:49:06;16.07;;;5.03;;
18776;SDS011;9517;51.174;4.160;2022-10-17T14:51:39;13.40;;;5.17;;
18776;SDS011;9517;51.174;4.160;2022-10-17T14:54:16;15.37;;;5.20;;
18776;SDS011;9517;51.174;4.160;2022-10-17T14:56:49;14.27;;;5.00;;
18776;SDS011;9517;51.174;4.160;2022-10-17T14:59:17;13.13;;;5.50;;
18776;SDS011;9517;51.174;4.160;2022-10-17T15:01:49;12.27;;;5.40;;
18776;SDS011;9517;51.174;4.160;2022-10-17T15:04:16;11.83;;;5.57;;
18776;SDS011;9517;51.174;4.160;2022-10-17T15:06:43;14.50;;;5.10;;
18776;SDS011;9517;51.174;4.160;2022-10-17T15:09:10;18.23;;;5.47;;
18776;SDS011;9517;51.174;4.160;2022-10-17T15:11:37;13.43;;;5.40;;
18776;SDS011;9517;51.174;4.160;2022-10-17T15:14:04;14.30;;;5.53;;
18776;SDS011;9517;51.174;4.160;2022-10-17T15:16:32;20.07;;;5.70;;
18776;SDS011;9517;51.174;4.160;2022-10-17T15:19:01;13.93;;;5.10;;
18776;SDS011;9517;51.174;4.160;2022-10-17T15:21:28;12.07;;;5.30;;
18776;SDS011;9517;51.174;4.160;2022-10-17T15:23:57;16.47;;;5.23;;
18776;SDS011;9517;51.174;4.160;2022-10-17T15:26:28;12.37;;;5.10;;
18776;SDS011;9517;51.174;4.160;2022-10-17T15:28:57;13.97;;;5.40;;
18776;SDS011;9517;51.174;4.160;2022-10-17T15:31:25;12.30;;;5.53;;